CheckWX is a tool to help pilots better visualize weather data.  It is not intended as a substitute for an official pre-flight weather briefing.

16:47:32 UTC

GMFO METAR
Angads Airport
Oujda, Morocco
Current

48 mins ago

GMFO 291600Z 33018KT 8000 FEW016 BKN230 23/17 Q1012 NOSIG
Observed
May-29 @ 16:00 UTC
Wind
  • 330° at 18 KTS
Visibility
7998 meters
Flight Rules
MVFR
Cloud Levels
  • Few at 1,600' AGL
  • Broken at 23,000' AGL
Temperature
23°C / 73°F
Dewpoint
17°C / 63°F
Humidity
69%
Altimeter
29.88" Hg
Pressure
1011.92 hPa
Previous

1 hour ago

GMFO 291530Z 32017KT 8000 FEW016 BKN230 24/17 Q1012 NOSIG
Observed
May-29 @ 15:30 UTC
Wind
  • 320° at 17 KTS
Visibility
7998 meters
Flight Rules
MVFR
Cloud Levels
  • Few at 1,600' AGL
  • Broken at 23,000' AGL
Temperature
24°C / 75°F
Dewpoint
17°C / 63°F
Humidity
65%
Altimeter
29.88" Hg
Pressure
1011.92 hPa
Previous

2 hours ago

GMFO 291500Z 32016KT 8000 FEW016 BKN230 25/17 Q1013 NOSIG
Observed
May-29 @ 15:00 UTC
Wind
  • 320° at 16 KTS
Visibility
7998 meters
Flight Rules
MVFR
Cloud Levels
  • Few at 1,600' AGL
  • Broken at 23,000' AGL
Temperature
25°C / 77°F
Dewpoint
17°C / 63°F
Humidity
61%
Altimeter
29.91" Hg
Pressure
1012.92 hPa